sensor_id;sensor_type;location;lat;lon;timestamp;P1;durP1;ratioP1;P2;durP2;ratioP2
13967;SDS011;39536;52.198;9.920;2023-06-22T00:02:05;10.70;;;10.00;;
13967;SDS011;39536;52.198;9.920;2023-06-22T00:04:32;11.23;;;10.30;;
13967;SDS011;39536;52.198;9.920;2023-06-22T00:06:58;10.60;;;9.93;;
13967;SDS011;39536;52.198;9.920;2023-06-22T00:09:25;10.07;;;9.47;;
13967;SDS011;39536;52.198;9.920;2023-06-22T00:11:51;12.23;;;11.10;;
13967;SDS011;39536;52.198;9.920;2023-06-22T00:14:18;10.97;;;10.37;;
13967;SDS011;39536;52.198;9.920;2023-06-22T00:16:45;10.97;;;10.13;;
13967;SDS011;39536;52.198;9.920;2023-06-22T00:19:15;11.17;;;10.50;;
13967;SDS011;39536;52.198;9.920;2023-06-22T00:21:41;11.23;;;10.53;;
13967;SDS011;39536;52.198;9.920;2023-06-22T00:24:12;10.73;;;10.13;;
13967;SDS011;39536;52.198;9.920;2023-06-22T00:26:38;10.53;;;9.93;;
13967;SDS011;39536;52.198;9.920;2023-06-22T00:29:05;10.40;;;9.80;;
13967;SDS011;39536;52.198;9.920;2023-06-22T00:31:31;10.37;;;9.77;;
13967;SDS011;39536;52.198;9.920;2023-06-22T00:33:58;10.70;;;10.00;;
13967;SDS011;39536;52.198;9.920;2023-06-22T00:36:26;10.87;;;10.27;;
13967;SDS011;39536;52.198;9.920;2023-06-22T00:38:52;10.50;;;9.63;;
13967;SDS011;39536;52.198;9.920;2023-06-22T00:41:19;9.70;;;9.20;;
13967;SDS011;39536;52.198;9.920;2023-06-22T00:43:46;10.13;;;9.53;;
13967;SDS011;39536;52.198;9.920;2023-06-22T00:46:12;10.60;;;10.00;;
13967;SDS011;39536;52.198;9.920;2023-06-22T00:48:39;10.43;;;9.73;;
13967;SDS011;39536;52.198;9.920;2023-06-22T00:51:08;9.87;;;9.07;;
13967;SDS011;39536;52.198;9.920;2023-06-22T00:53:37;10.03;;;9.43;;
13967;SDS011;39536;52.198;9.920;2023-06-22T00:56:06;10.47;;;9.63;;
13967;SDS011;39536;52.198;9.920;2023-06-22T00:58:34;11.10;;;10.30;;
13967;SDS011;39536;52.198;9.920;2023-06-22T01:01:01;11.13;;;10.33;;
13967;SDS011;39536;52.198;9.920;2023-06-22T01:03:28;12.73;;;11.50;;
13967;SDS011;39536;52.198;9.920;2023-06-22T01:05:55;12.93;;;11.80;;
13967;SDS011;39536;52.198;9.920;2023-06-22T01:08:40;11.60;;;10.90;;
13967;SDS011;39536;52.198;9.920;2023-06-22T01:11:12;12.10;;;11.30;;
13967;SDS011;39536;52.198;9.920;2023-06-22T01:13:45;14.20;;;11.80;;
13967;SDS011;39536;52.198;9.920;2023-06-22T01:16:17;11.70;;;10.90;;
13967;SDS011;39536;52.198;9.920;2023-06-22T01:18:50;11.87;;;11.13;;
13967;SDS011;39536;52.198;9.920;2023-06-22T01:21:21;12.90;;;12.10;;
13967;SDS011;39536;52.198;9.920;2023-06-22T01:24:00;12.93;;;12.13;;
13967;SDS011;39536;52.198;9.920;2023-06-22T01:26:37;13.27;;;12.27;;
13967;SDS011;39536;52.198;9.920;2023-06-22T01:29:09;15.63;;;14.47;;
13967;SDS011;39536;52.198;9.920;2023-06-22T01:31:38;15.57;;;14.27;;
13967;SDS011;39536;52.198;9.920;2023-06-22T01:34:06;15.10;;;14.00;;
13967;SDS011;39536;52.198;9.920;2023-06-22T01:36:35;15.20;;;14.30;;
13967;SDS011;39536;52.198;9.920;2023-06-22T01:39:04;14.70;;;13.60;;
13967;SDS011;39536;52.198;9.920;2023-06-22T01:41:33;14.00;;;13.10;;
13967;SDS011;39536;52.198;9.920;2023-06-22T01:44:02;15.70;;;14.43;;
13967;SDS011;39536;52.198;9.920;2023-06-22T01:46:32;14.17;;;13.10;;
13967;SDS011;39536;52.198;9.920;2023-06-22T01:49:00;13.13;;;12.20;;
13967;SDS011;39536;52.198;9.920;2023-06-22T01:51:27;12.80;;;11.80;;
13967;SDS011;39536;52.198;9.920;2023-06-22T01:53:54;12.83;;;11.67;;
13967;SDS011;39536;52.198;9.920;2023-06-22T01:56:21;13.80;;;12.80;;
13967;SDS011;39536;52.198;9.920;2023-06-22T01:58:49;13.33;;;12.33;;
13967;SDS011;39536;52.198;9.920;2023-06-22T02:01:20;12.63;;;11.67;;
13967;SDS011;39536;52.198;9.920;2023-06-22T02:03:56;13.20;;;12.10;;
13967;SDS011;39536;52.198;9.920;2023-06-22T02:06:33;13.30;;;12.33;;
13967;SDS011;39536;52.198;9.920;2023-06-22T02:09:06;12.43;;;11.53;;
13967;SDS011;39536;52.198;9.920;2023-06-22T02:11:35;13.33;;;12.40;;
13967;SDS011;39536;52.198;9.920;2023-06-22T02:14:03;14.00;;;13.07;;
13967;SDS011;39536;52.198;9.920;2023-06-22T02:16:32;13.80;;;12.40;;
13967;SDS011;39536;52.198;9.920;2023-06-22T02:19:01;13.93;;;12.93;;
13967;SDS011;39536;52.198;9.920;2023-06-22T02:21:29;14.63;;;13.33;;
13967;SDS011;39536;52.198;9.920;2023-06-22T02:23:56;12.33;;;11.43;;
13967;SDS011;39536;52.198;9.920;2023-06-22T02:26:22;14.40;;;13.03;;
13967;SDS011;39536;52.198;9.920;2023-06-22T02:28:51;13.43;;;12.43;;
13967;SDS011;39536;52.198;9.920;2023-06-22T02:31:18;14.13;;;13.03;;
13967;SDS011;39536;52.198;9.920;2023-06-22T02:33:45;14.03;;;13.13;;
13967;SDS011;39536;52.198;9.920;2023-06-22T02:36:13;13.30;;;12.40;;
13967;SDS011;39536;52.198;9.920;2023-06-22T02:38:40;13.60;;;12.60;;
13967;SDS011;39536;52.198;9.920;2023-06-22T02:41:13;12.90;;;12.00;;
13967;SDS011;39536;52.198;9.920;2023-06-22T02:43:43;13.77;;;12.43;;
13967;SDS011;39536;52.198;9.920;2023-06-22T02:46:10;13.70;;;12.03;;
13967;SDS011;39536;52.198;9.920;2023-06-22T02:48:38;13.07;;;11.93;;
13967;SDS011;39536;52.198;9.920;2023-06-22T02:51:04;13.53;;;12.40;;
13967;SDS011;39536;52.198;9.920;2023-06-22T02:53:33;13.07;;;11.93;;
13967;SDS011;39536;52.198;9.920;2023-06-22T02:56:00;12.53;;;11.50;;
13967;SDS011;39536;52.198;9.920;2023-06-22T02:58:28;13.83;;;12.60;;
13967;SDS011;39536;52.198;9.920;2023-06-22T03:00:54;12.50;;;11.60;;
13967;SDS011;39536;52.198;9.920;2023-06-22T03:03:21;12.43;;;11.53;;
13967;SDS011;39536;52.198;9.920;2023-06-22T03:05:48;12.50;;;11.40;;
13967;SDS011;39536;52.198;9.920;2023-06-22T03:08:14;13.27;;;11.93;;
13967;SDS011;39536;52.198;9.920;2023-06-22T03:10:42;12.83;;;11.93;;
13967;SDS011;39536;52.198;9.920;2023-06-22T03:13:09;12.90;;;11.73;;
13967;SDS011;39536;52.198;9.920;2023-06-22T03:15:35;13.77;;;11.40;;
13967;SDS011;39536;52.198;9.920;2023-06-22T03:18:02;13.70;;;12.43;;
13967;SDS011;39536;52.198;9.920;2023-06-22T03:20:30;12.47;;;11.37;;
13967;SDS011;39536;52.198;9.920;2023-06-22T03:22:58;13.70;;;12.40;;
13967;SDS011;39536;52.198;9.920;2023-06-22T03:25:25;12.90;;;11.60;;
13967;SDS011;39536;52.198;9.920;2023-06-22T03:27:53;13.10;;;11.90;;
13967;SDS011;39536;52.198;9.920;2023-06-22T03:30:20;14.10;;;11.83;;
13967;SDS011;39536;52.198;9.920;2023-06-22T03:32:46;13.87;;;12.67;;
13967;SDS011;39536;52.198;9.920;2023-06-22T03:35:13;16.40;;;12.83;;
13967;SDS011;39536;52.198;9.920;2023-06-22T03:37:39;13.03;;;12.17;;
13967;SDS011;39536;52.198;9.920;2023-06-22T03:40:07;13.63;;;12.57;;
13967;SDS011;39536;52.198;9.920;2023-06-22T03:42:34;14.20;;;12.93;;
13967;SDS011;39536;52.198;9.920;2023-06-22T03:45:02;14.10;;;12.70;;
13967;SDS011;39536;52.198;9.920;2023-06-22T03:47:30;14.53;;;13.00;;
13967;SDS011;39536;52.198;9.920;2023-06-22T03:49:56;14.30;;;12.70;;
13967;SDS011;39536;52.198;9.920;2023-06-22T03:52:23;13.77;;;12.57;;
13967;SDS011;39536;52.198;9.920;2023-06-22T03:54:50;14.67;;;13.20;;
13967;SDS011;39536;52.198;9.920;2023-06-22T03:57:16;15.17;;;13.67;;
13967;SDS011;39536;52.198;9.920;2023-06-22T03:59:43;14.03;;;12.87;;
13967;SDS011;39536;52.198;9.920;2023-06-22T04:02:11;15.53;;;14.10;;
13967;SDS011;39536;52.198;9.920;2023-06-22T04:04:38;16.30;;;14.13;;
13967;SDS011;39536;52.198;9.920;2023-06-22T04:07:05;15.43;;;14.10;;
13967;SDS011;39536;52.198;9.920;2023-06-22T04:09:31;16.23;;;14.70;;
13967;SDS011;39536;52.198;9.920;2023-06-22T04:11:58;15.83;;;14.33;;
13967;SDS011;39536;52.198;9.920;2023-06-22T04:14:25;15.27;;;13.97;;
13967;SDS011;39536;52.198;9.920;2023-06-22T04:16:51;15.43;;;14.10;;
13967;SDS011;39536;52.198;9.920;2023-06-22T04:19:19;14.43;;;13.37;;
13967;SDS011;39536;52.198;9.920;2023-06-22T04:21:46;16.53;;;14.93;;
13967;SDS011;39536;52.198;9.920;2023-06-22T04:24:13;15.77;;;14.67;;
13967;SDS011;39536;52.198;9.920;2023-06-22T04:26:40;16.80;;;15.40;;
13967;SDS011;39536;52.198;9.920;2023-06-22T04:29:10;16.30;;;15.10;;
13967;SDS011;39536;52.198;9.920;2023-06-22T04:31:37;16.53;;;15.27;;
13967;SDS011;39536;52.198;9.920;2023-06-22T04:34:04;15.77;;;14.67;;
13967;SDS011;39536;52.198;9.920;2023-06-22T04:36:34;18.20;;;16.83;;
13967;SDS011;39536;52.198;9.920;2023-06-22T04:39:04;19.03;;;16.90;;
13967;SDS011;39536;52.198;9.920;2023-06-22T04:41:32;24.07;;;17.83;;
13967;SDS011;39536;52.198;9.920;2023-06-22T04:44:07;19.00;;;17.47;;
13967;SDS011;39536;52.198;9.920;2023-06-22T04:46:35;17.73;;;16.47;;
13967;SDS011;39536;52.198;9.920;2023-06-22T04:49:03;18.90;;;17.23;;
13967;SDS011;39536;52.198;9.920;2023-06-22T04:51:37;17.43;;;16.23;;
13967;SDS011;39536;52.198;9.920;2023-06-22T04:54:06;22.50;;;17.30;;
13967;SDS011;39536;52.198;9.920;2023-06-22T04:56:33;20.00;;;18.07;;
13967;SDS011;39536;52.198;9.920;2023-06-22T04:59:00;19.27;;;17.30;;
13967;SDS011;39536;52.198;9.920;2023-06-22T05:01:28;18.83;;;17.03;;
13967;SDS011;39536;52.198;9.920;2023-06-22T05:03:56;19.90;;;18.17;;
13967;SDS011;39536;52.198;9.920;2023-06-22T05:06:23;20.10;;;18.23;;
13967;SDS011;39536;52.198;9.920;2023-06-22T05:08:53;20.50;;;18.60;;
13967;SDS011;39536;52.198;9.920;2023-06-22T05:11:22;19.90;;;18.30;;
13967;SDS011;39536;52.198;9.920;2023-06-22T05:13:49;20.90;;;18.70;;
13967;SDS011;39536;52.198;9.920;2023-06-22T05:16:16;19.27;;;17.70;;
13967;SDS011;39536;52.198;9.920;2023-06-22T05:18:43;19.17;;;17.63;;
13967;SDS011;39536;52.198;9.920;2023-06-22T05:21:09;20.73;;;19.20;;
13967;SDS011;39536;52.198;9.920;2023-06-22T05:23:36;19.87;;;18.27;;
13967;SDS011;39536;52.198;9.920;2023-06-22T05:26:04;19.47;;;17.97;;
13967;SDS011;39536;52.198;9.920;2023-06-22T05:28:32;19.43;;;17.83;;
13967;SDS011;39536;52.198;9.920;2023-06-22T05:30:59;19.07;;;17.33;;
13967;SDS011;39536;52.198;9.920;2023-06-22T05:33:26;19.10;;;17.60;;
13967;SDS011;39536;52.198;9.920;2023-06-22T05:35:52;18.60;;;17.40;;
13967;SDS011;39536;52.198;9.920;2023-06-22T05:38:19;18.93;;;17.63;;
13967;SDS011;39536;52.198;9.920;2023-06-22T05:40:45;17.77;;;16.47;;
13967;SDS011;39536;52.198;9.920;2023-06-22T05:43:13;19.07;;;17.13;;
13967;SDS011;39536;52.198;9.920;2023-06-22T05:45:41;17.13;;;15.73;;
13967;SDS011;39536;52.198;9.920;2023-06-22T05:48:08;18.93;;;17.37;;
13967;SDS011;39536;52.198;9.920;2023-06-22T05:50:34;19.37;;;17.63;;
13967;SDS011;39536;52.198;9.920;2023-06-22T05:53:02;19.40;;;17.67;;
13967;SDS011;39536;52.198;9.920;2023-06-22T05:55:28;18.23;;;16.63;;
13967;SDS011;39536;52.198;9.920;2023-06-22T05:57:55;19.53;;;17.83;;
13967;SDS011;39536;52.198;9.920;2023-06-22T06:00:23;19.30;;;17.83;;
13967;SDS011;39536;52.198;9.920;2023-06-22T06:02:49;20.43;;;18.57;;
13967;SDS011;39536;52.198;9.920;2023-06-22T06:05:16;20.00;;;18.00;;
13967;SDS011;39536;52.198;9.920;2023-06-22T06:07:44;18.87;;;17.33;;
13967;SDS011;39536;52.198;9.920;2023-06-22T06:10:11;18.73;;;17.40;;
13967;SDS011;39536;52.198;9.920;2023-06-22T06:12:38;18.80;;;17.37;;
13967;SDS011;39536;52.198;9.920;2023-06-22T06:15:05;18.60;;;17.30;;
13967;SDS011;39536;52.198;9.920;2023-06-22T06:17:34;18.27;;;16.97;;
13967;SDS011;39536;52.198;9.920;2023-06-22T06:20:02;18.10;;;16.73;;
13967;SDS011;39536;52.198;9.920;2023-06-22T06:22:29;18.80;;;17.30;;
13967;SDS011;39536;52.198;9.920;2023-06-22T06:24:56;16.97;;;15.67;;
13967;SDS011;39536;52.198;9.920;2023-06-22T06:27:23;17.30;;;15.90;;
13967;SDS011;39536;52.198;9.920;2023-06-22T06:29:54;17.87;;;16.37;;
13967;SDS011;39536;52.198;9.920;2023-06-22T06:32:21;17.60;;;16.10;;
13967;SDS011;39536;52.198;9.920;2023-06-22T06:34:48;17.90;;;16.17;;
13967;SDS011;39536;52.198;9.920;2023-06-22T06:37:16;16.37;;;15.13;;
13967;SDS011;39536;52.198;9.920;2023-06-22T06:39:43;19.43;;;15.77;;
13967;SDS011;39536;52.198;9.920;2023-06-22T06:42:10;16.50;;;15.23;;
13967;SDS011;39536;52.198;9.920;2023-06-22T06:44:37;16.03;;;14.40;;
13967;SDS011;39536;52.198;9.920;2023-06-22T06:47:03;16.03;;;14.77;;
13967;SDS011;39536;52.198;9.920;2023-06-22T06:49:30;16.43;;;14.93;;
13967;SDS011;39536;52.198;9.920;2023-06-22T06:51:58;15.93;;;14.73;;
13967;SDS011;39536;52.198;9.920;2023-06-22T06:54:25;15.10;;;14.20;;
13967;SDS011;39536;52.198;9.920;2023-06-22T06:56:52;15.00;;;13.93;;
13967;SDS011;39536;52.198;9.920;2023-06-22T06:59:19;15.97;;;14.50;;
13967;SDS011;39536;52.198;9.920;2023-06-22T07:01:45;15.97;;;14.53;;
13967;SDS011;39536;52.198;9.920;2023-06-22T07:04:13;15.13;;;14.00;;
13967;SDS011;39536;52.198;9.920;2023-06-22T07:06:40;15.20;;;14.10;;
13967;SDS011;39536;52.198;9.920;2023-06-22T07:09:09;15.53;;;14.10;;
13967;SDS011;39536;52.198;9.920;2023-06-22T07:11:35;14.23;;;13.33;;
13967;SDS011;39536;52.198;9.920;2023-06-22T07:14:02;15.17;;;13.93;;
13967;SDS011;39536;52.198;9.920;2023-06-22T07:16:29;13.47;;;12.57;;
13967;SDS011;39536;52.198;9.920;2023-06-22T07:18:56;13.03;;;11.73;;
13967;SDS011;39536;52.198;9.920;2023-06-22T07:21:23;13.00;;;12.10;;
13967;SDS011;39536;52.198;9.920;2023-06-22T07:23:50;13.83;;;12.20;;
13967;SDS011;39536;52.198;9.920;2023-06-22T07:26:17;12.50;;;11.33;;
13967;SDS011;39536;52.198;9.920;2023-06-22T07:28:44;13.03;;;12.03;;
13967;SDS011;39536;52.198;9.920;2023-06-22T07:31:11;13.17;;;12.23;;
13967;SDS011;39536;52.198;9.920;2023-06-22T07:33:37;12.67;;;11.67;;
13967;SDS011;39536;52.198;9.920;2023-06-22T07:36:04;13.33;;;12.20;;
13967;SDS011;39536;52.198;9.920;2023-06-22T07:38:33;13.47;;;12.37;;
13967;SDS011;39536;52.198;9.920;2023-06-22T07:41:00;13.73;;;12.33;;
13967;SDS011;39536;52.198;9.920;2023-06-22T07:43:28;13.07;;;12.07;;
13967;SDS011;39536;52.198;9.920;2023-06-22T07:45:55;12.80;;;11.80;;
13967;SDS011;39536;52.198;9.920;2023-06-22T07:48:22;13.30;;;12.30;;
13967;SDS011;39536;52.198;9.920;2023-06-22T07:50:49;13.47;;;12.37;;
13967;SDS011;39536;52.198;9.920;2023-06-22T07:53:16;14.30;;;13.10;;
13967;SDS011;39536;52.198;9.920;2023-06-22T07:55:42;13.40;;;12.20;;
13967;SDS011;39536;52.198;9.920;2023-06-22T07:58:09;14.10;;;13.03;;
13967;SDS011;39536;52.198;9.920;2023-06-22T08:00:37;13.23;;;12.30;;
13967;SDS011;39536;52.198;9.920;2023-06-22T08:03:03;13.70;;;12.37;;
13967;SDS011;39536;52.198;9.920;2023-06-22T08:05:30;14.00;;;12.87;;
13967;SDS011;39536;52.198;9.920;2023-06-22T08:07:57;13.53;;;12.43;;
13967;SDS011;39536;52.198;9.920;2023-06-22T08:10:23;13.17;;;12.03;;
13967;SDS011;39536;52.198;9.920;2023-06-22T08:12:51;13.00;;;11.87;;
13967;SDS011;39536;52.198;9.920;2023-06-22T08:15:18;12.90;;;12.10;;
13967;SDS011;39536;52.198;9.920;2023-06-22T08:17:46;14.70;;;13.73;;
13967;SDS011;39536;52.198;9.920;2023-06-22T08:20:12;13.33;;;12.50;;
13967;SDS011;39536;52.198;9.920;2023-06-22T08:22:39;13.83;;;12.83;;
13967;SDS011;39536;52.198;9.920;2023-06-22T08:25:07;13.87;;;12.53;;
13967;SDS011;39536;52.198;9.920;2023-06-22T08:27:34;13.77;;;12.70;;
13967;SDS011;39536;52.198;9.920;2023-06-22T08:30:01;12.90;;;12.10;;
13967;SDS011;39536;52.198;9.920;2023-06-22T08:32:29;13.83;;;12.70;;
13967;SDS011;39536;52.198;9.920;2023-06-22T08:34:59;13.53;;;12.50;;
13967;SDS011;39536;52.198;9.920;2023-06-22T08:37:25;12.60;;;11.70;;
13967;SDS011;39536;52.198;9.920;2023-06-22T08:39:56;13.10;;;12.30;;
13967;SDS011;39536;52.198;9.920;2023-06-22T08:42:22;13.97;;;12.73;;
13967;SDS011;39536;52.198;9.920;2023-06-22T08:44:50;13.47;;;12.47;;
13967;SDS011;39536;52.198;9.920;2023-06-22T08:47:17;13.37;;;12.13;;
13967;SDS011;39536;52.198;9.920;2023-06-22T08:49:44;13.23;;;12.13;;
13967;SDS011;39536;52.198;9.920;2023-06-22T08:52:12;13.50;;;12.53;;
13967;SDS011;39536;52.198;9.920;2023-06-22T08:54:39;12.43;;;11.63;;
13967;SDS011;39536;52.198;9.920;2023-06-22T08:57:06;13.53;;;12.47;;
13967;SDS011;39536;52.198;9.920;2023-06-22T08:59:32;12.30;;;11.37;;
13967;SDS011;39536;52.198;9.920;2023-06-22T09:01:59;13.13;;;12.23;;
13967;SDS011;39536;52.198;9.920;2023-06-22T09:04:25;12.67;;;11.87;;
13967;SDS011;39536;52.198;9.920;2023-06-22T09:06:52;13.90;;;12.80;;
13967;SDS011;39536;52.198;9.920;2023-06-22T09:09:21;13.10;;;12.20;;
13967;SDS011;39536;52.198;9.920;2023-06-22T09:11:47;13.50;;;12.50;;
13967;SDS011;39536;52.198;9.920;2023-06-22T09:14:14;13.67;;;12.77;;
13967;SDS011;39536;52.198;9.920;2023-06-22T09:16:41;13.60;;;12.60;;
13967;SDS011;39536;52.198;9.920;2023-06-22T09:19:07;12.73;;;11.77;;
13967;SDS011;39536;52.198;9.920;2023-06-22T09:21:34;14.60;;;13.23;;
13967;SDS011;39536;52.198;9.920;2023-06-22T09:24:00;15.27;;;14.00;;
13967;SDS011;39536;52.198;9.920;2023-06-22T09:26:28;12.83;;;12.03;;
13967;SDS011;39536;52.198;9.920;2023-06-22T09:28:55;14.83;;;13.80;;
13967;SDS011;39536;52.198;9.920;2023-06-22T09:31:25;15.67;;;14.30;;
13967;SDS011;39536;52.198;9.920;2023-06-22T09:33:52;15.87;;;14.47;;
13967;SDS011;39536;52.198;9.920;2023-06-22T09:36:19;16.47;;;14.80;;
13967;SDS011;39536;52.198;9.920;2023-06-22T09:38:47;16.47;;;14.93;;
13967;SDS011;39536;52.198;9.920;2023-06-22T09:41:21;16.87;;;15.37;;
13967;SDS011;39536;52.198;9.920;2023-06-22T09:43:49;15.00;;;13.90;;
13967;SDS011;39536;52.198;9.920;2023-06-22T09:46:16;22.60;;;20.60;;
13967;SDS011;39536;52.198;9.920;2023-06-22T09:48:43;17.20;;;16.00;;
13967;SDS011;39536;52.198;9.920;2023-06-22T09:51:10;17.70;;;16.30;;
13967;SDS011;39536;52.198;9.920;2023-06-22T09:53:38;17.13;;;15.60;;
13967;SDS011;39536;52.198;9.920;2023-06-22T09:56:04;18.57;;;17.03;;
13967;SDS011;39536;52.198;9.920;2023-06-22T09:58:31;16.67;;;15.10;;
13967;SDS011;39536;52.198;9.920;2023-06-22T10:00:59;17.07;;;15.70;;
13967;SDS011;39536;52.198;9.920;2023-06-22T10:03:26;17.03;;;15.67;;
13967;SDS011;39536;52.198;9.920;2023-06-22T10:05:53;17.17;;;15.87;;
13967;SDS011;39536;52.198;9.920;2023-06-22T10:08:19;18.23;;;16.93;;
13967;SDS011;39536;52.198;9.920;2023-06-22T10:10:46;16.90;;;15.63;;
13967;SDS011;39536;52.198;9.920;2023-06-22T10:13:13;17.60;;;16.50;;
13967;SDS011;39536;52.198;9.920;2023-06-22T10:15:40;18.20;;;16.73;;
13967;SDS011;39536;52.198;9.920;2023-06-22T10:18:08;18.37;;;16.97;;
13967;SDS011;39536;52.198;9.920;2023-06-22T10:20:34;19.03;;;17.73;;
13967;SDS011;39536;52.198;9.920;2023-06-22T10:23:01;18.73;;;17.53;;
13967;SDS011;39536;52.198;9.920;2023-06-22T10:25:28;19.30;;;18.00;;
13967;SDS011;39536;52.198;9.920;2023-06-22T10:27:54;20.90;;;19.03;;
13967;SDS011;39536;52.198;9.920;2023-06-22T10:30:21;19.97;;;18.60;;
13967;SDS011;39536;52.198;9.920;2023-06-22T10:32:48;21.27;;;19.97;;
13967;SDS011;39536;52.198;9.920;2023-06-22T10:35:16;20.60;;;19.13;;
13967;SDS011;39536;52.198;9.920;2023-06-22T10:37:43;20.77;;;19.27;;
13967;SDS011;39536;52.198;9.920;2023-06-22T10:40:11;21.10;;;19.70;;
13967;SDS011;39536;52.198;9.920;2023-06-22T10:42:38;20.00;;;18.40;;
13967;SDS011;39536;52.198;9.920;2023-06-22T10:45:05;19.70;;;18.30;;
13967;SDS011;39536;52.198;9.920;2023-06-22T10:47:33;20.50;;;19.00;;
13967;SDS011;39536;52.198;9.920;2023-06-22T10:49:59;20.83;;;19.43;;
13967;SDS011;39536;52.198;9.920;2023-06-22T10:52:28;19.87;;;18.67;;
13967;SDS011;39536;52.198;9.920;2023-06-22T10:54:55;20.50;;;19.00;;
13967;SDS011;39536;52.198;9.920;2023-06-22T10:57:21;20.73;;;19.33;;
13967;SDS011;39536;52.198;9.920;2023-06-22T10:59:48;20.67;;;19.03;;
13967;SDS011;39536;52.198;9.920;2023-06-22T11:02:15;19.23;;;17.83;;
13967;SDS011;39536;52.198;9.920;2023-06-22T11:04:42;19.50;;;18.30;;
13967;SDS011;39536;52.198;9.920;2023-06-22T11:07:09;21.23;;;19.73;;
13967;SDS011;39536;52.198;9.920;2023-06-22T11:09:37;20.13;;;18.70;;
13967;SDS011;39536;52.198;9.920;2023-06-22T11:12:05;20.57;;;18.90;;
13967;SDS011;39536;52.198;9.920;2023-06-22T11:14:32;21.53;;;20.23;;
13967;SDS011;39536;52.198;9.920;2023-06-22T11:16:59;23.37;;;21.57;;
13967;SDS011;39536;52.198;9.920;2023-06-22T11:19:26;21.03;;;19.20;;
13967;SDS011;39536;52.198;9.920;2023-06-22T11:21:52;21.27;;;19.67;;
13967;SDS011;39536;52.198;9.920;2023-06-22T11:24:19;21.60;;;20.20;;
13967;SDS011;39536;52.198;9.920;2023-06-22T11:26:47;19.97;;;18.77;;
13967;SDS011;39536;52.198;9.920;2023-06-22T11:29:13;18.57;;;17.47;;
13967;SDS011;39536;52.198;9.920;2023-06-22T11:31:40;19.57;;;18.37;;
13967;SDS011;39536;52.198;9.920;2023-06-22T11:34:08;19.03;;;17.80;;
13967;SDS011;39536;52.198;9.920;2023-06-22T11:36:35;18.30;;;17.00;;
13967;SDS011;39536;52.198;9.920;2023-06-22T11:39:02;19.90;;;18.63;;
13967;SDS011;39536;52.198;9.920;2023-06-22T11:41:29;19.30;;;17.90;;
13967;SDS011;39536;52.198;9.920;2023-06-22T11:43:57;17.87;;;16.77;;
13967;SDS011;39536;52.198;9.920;2023-06-22T11:46:24;18.90;;;17.33;;
13967;SDS011;39536;52.198;9.920;2023-06-22T11:48:51;18.30;;;17.20;;
13967;SDS011;39536;52.198;9.920;2023-06-22T11:51:17;18.53;;;17.17;;
13967;SDS011;39536;52.198;9.920;2023-06-22T11:53:44;16.37;;;15.37;;
13967;SDS011;39536;52.198;9.920;2023-06-22T11:56:11;18.30;;;17.20;;
13967;SDS011;39536;52.198;9.920;2023-06-22T11:58:37;27.93;;;22.20;;
13967;SDS011;39536;52.198;9.920;2023-06-22T12:01:05;18.40;;;16.80;;
13967;SDS011;39536;52.198;9.920;2023-06-22T12:03:32;17.83;;;16.70;;
13967;SDS011;39536;52.198;9.920;2023-06-22T12:05:59;17.13;;;16.03;;
13967;SDS011;39536;52.198;9.920;2023-06-22T12:08:25;16.73;;;15.30;;
13967;SDS011;39536;52.198;9.920;2023-06-22T12:10:52;17.17;;;16.17;;
13967;SDS011;39536;52.198;9.920;2023-06-22T12:13:19;15.43;;;14.40;;
13967;SDS011;39536;52.198;9.920;2023-06-22T12:15:46;16.60;;;15.27;;
13967;SDS011;39536;52.198;9.920;2023-06-22T12:18:14;15.60;;;14.60;;
13967;SDS011;39536;52.198;9.920;2023-06-22T12:20:41;15.33;;;14.23;;
13967;SDS011;39536;52.198;9.920;2023-06-22T12:23:07;15.23;;;13.90;;
13967;SDS011;39536;52.198;9.920;2023-06-22T12:25:34;15.73;;;14.53;;
13967;SDS011;39536;52.198;9.920;2023-06-22T12:28:01;15.27;;;14.27;;
13967;SDS011;39536;52.198;9.920;2023-06-22T12:30:27;15.00;;;13.80;;
13967;SDS011;39536;52.198;9.920;2023-06-22T12:32:54;16.40;;;15.00;;
13967;SDS011;39536;52.198;9.920;2023-06-22T12:35:22;15.73;;;14.80;;
13967;SDS011;39536;52.198;9.920;2023-06-22T12:37:48;16.07;;;15.17;;
13967;SDS011;39536;52.198;9.920;2023-06-22T12:40:15;15.70;;;14.70;;
13967;SDS011;39536;52.198;9.920;2023-06-22T12:42:42;17.07;;;16.00;;
13967;SDS011;39536;52.198;9.920;2023-06-22T12:45:09;16.73;;;15.63;;
13967;SDS011;39536;52.198;9.920;2023-06-22T12:47:36;16.80;;;15.67;;
13967;SDS011;39536;52.198;9.920;2023-06-22T12:50:03;17.37;;;16.17;;
13967;SDS011;39536;52.198;9.920;2023-06-22T12:52:31;16.53;;;15.60;;
13967;SDS011;39536;52.198;9.920;2023-06-22T12:54:58;15.57;;;14.67;;
13967;SDS011;39536;52.198;9.920;2023-06-22T12:57:25;14.57;;;13.77;;
13967;SDS011;39536;52.198;9.920;2023-06-22T12:59:51;15.17;;;14.10;;
13967;SDS011;39536;52.198;9.920;2023-06-22T13:02:18;13.00;;;12.30;;
13967;SDS011;39536;52.198;9.920;2023-06-22T13:04:45;13.93;;;13.13;;
13967;SDS011;39536;52.198;9.920;2023-06-22T13:07:11;13.90;;;13.20;;
13967;SDS011;39536;52.198;9.920;2023-06-22T13:09:39;13.63;;;12.93;;
13967;SDS011;39536;52.198;9.920;2023-06-22T13:12:06;12.37;;;11.70;;
13967;SDS011;39536;52.198;9.920;2023-06-22T13:14:33;12.80;;;12.00;;
13967;SDS011;39536;52.198;9.920;2023-06-22T13:17:00;13.07;;;12.27;;
13967;SDS011;39536;52.198;9.920;2023-06-22T13:19:26;12.43;;;11.53;;
13967;SDS011;39536;52.198;9.920;2023-06-22T13:21:57;12.27;;;11.67;;
13967;SDS011;39536;52.198;9.920;2023-06-22T13:24:23;13.27;;;12.27;;
13967;SDS011;39536;52.198;9.920;2023-06-22T13:26:52;12.80;;;12.10;;
13967;SDS011;39536;52.198;9.920;2023-06-22T13:29:18;12.33;;;11.53;;
13967;SDS011;39536;52.198;9.920;2023-06-22T13:31:45;12.13;;;11.40;;
13967;SDS011;39536;52.198;9.920;2023-06-22T13:34:11;12.87;;;12.03;;
13967;SDS011;39536;52.198;9.920;2023-06-22T13:36:38;12.80;;;12.10;;
13967;SDS011;39536;52.198;9.920;2023-06-22T13:39:05;12.77;;;11.90;;
13967;SDS011;39536;52.198;9.920;2023-06-22T13:41:31;12.53;;;11.77;;
13967;SDS011;39536;52.198;9.920;2023-06-22T13:43:59;12.20;;;11.53;;
13967;SDS011;39536;52.198;9.920;2023-06-22T13:46:26;13.63;;;12.70;;
13967;SDS011;39536;52.198;9.920;2023-06-22T13:48:52;12.17;;;11.40;;
13967;SDS011;39536;52.198;9.920;2023-06-22T13:51:19;12.97;;;12.17;;
13967;SDS011;39536;52.198;9.920;2023-06-22T13:53:46;12.73;;;11.83;;
13967;SDS011;39536;52.198;9.920;2023-06-22T13:56:12;13.63;;;12.57;;
13967;SDS011;39536;52.198;9.920;2023-06-22T13:58:39;13.27;;;12.27;;
13967;SDS011;39536;52.198;9.920;2023-06-22T14:01:07;13.50;;;12.50;;
13967;SDS011;39536;52.198;9.920;2023-06-22T14:03:34;13.00;;;12.20;;
13967;SDS011;39536;52.198;9.920;2023-06-22T14:06:00;13.03;;;12.23;;
13967;SDS011;39536;52.198;9.920;2023-06-22T14:08:27;14.47;;;13.13;;
13967;SDS011;39536;52.198;9.920;2023-06-22T14:10:53;14.67;;;13.77;;
13967;SDS011;39536;52.198;9.920;2023-06-22T14:13:20;14.27;;;13.47;;
13967;SDS011;39536;52.198;9.920;2023-06-22T14:15:47;13.43;;;12.57;;
13967;SDS011;39536;52.198;9.920;2023-06-22T14:18:15;13.70;;;12.90;;
13967;SDS011;39536;52.198;9.920;2023-06-22T14:20:42;14.73;;;13.50;;
13967;SDS011;39536;52.198;9.920;2023-06-22T14:23:09;14.00;;;13.13;;